Time;durP1;ratioP1;P1;durP2;ratioP2;P2;SDS_P1;SDS_P2;PMS_P1;PMS_P2;Temp;Humidity;BMP_temperature;BMP_pressure;BME280_temperature;BME280_humidity;BME280_pressure;Samples;Min_cycle;Max_cycle;Signal;HPM_P1;HPM_P2
2023/08/06 00:00:26;;;;;;;11.00;8.27;;;13.20;99.90;;;;;;5019517;28;20068;-75
2023/08/06 00:02:52;;;;;;;12.80;8.23;;;13.20;99.90;;;;;;5030317;28;20716;-74
2023/08/06 00:05:18;;;;;;;13.23;8.27;;;13.20;99.90;;;;;;5042297;28;20325;-74
2023/08/06 00:07:52;;;;;;;11.83;8.67;;;13.20;99.90;;;;;;5040445;28;20492;-75
2023/08/06 00:10:18;;;;;;;11.15;8.20;;;13.20;99.90;;;;;;5034894;28;20037;-75
2023/08/06 00:12:44;;;;;;;13.53;8.53;;;13.20;99.90;;;;;;5026310;28;20805;-74
2023/08/06 00:15:10;;;;;;;12.27;7.83;;;13.20;99.90;;;;;;5034531;28;20099;-74
2023/08/06 00:17:36;;;;;;;13.57;9.30;;;13.20;99.90;;;;;;5043871;28;20288;-75
2023/08/06 00:20:06;;;;;;;11.43;8.43;;;13.20;99.90;;;;;;5040980;28;20334;-74
2023/08/06 00:22:36;;;;;;;14.60;8.60;;;13.20;99.90;;;;;;5005927;28;20288;-75
2023/08/06 00:25:03;;;;;;;12.87;8.97;;;13.20;99.90;;;;;;5006884;28;20284;-74
2023/08/06 00:27:29;;;;;;;14.07;8.67;;;13.20;99.90;;;;;;5008146;28;20613;-74
2023/08/06 00:29:55;;;;;;;13.40;9.27;;;13.20;99.90;;;;;;5010803;28;20303;-74
2023/08/06 00:32:21;;;;;;;12.50;9.00;;;13.20;99.90;;;;;;4994904;28;20285;-74
2023/08/06 00:34:49;;;;;;;12.83;9.33;;;13.20;99.90;;;;;;5003792;28;20041;-74
2023/08/06 00:37:17;;;;;;;12.53;9.10;;;13.20;99.90;;;;;;4997850;28;20346;-75
2023/08/06 00:39:44;;;;;;;15.60;9.93;;;13.20;99.90;;;;;;4999803;28;20361;-74
2023/08/06 00:42:13;;;;;;;14.17;9.40;;;13.20;99.90;;;;;;5004791;28;20329;-75
2023/08/06 00:44:39;;;;;;;14.60;10.40;;;13.20;99.90;;;;;;4985030;28;20827;-75
2023/08/06 00:47:07;;;;;;;13.87;10.10;;;13.20;99.90;;;;;;5000278;28;20324;-75
2023/08/06 00:49:34;;;;;;;14.93;10.10;;;13.20;99.90;;;;;;4997777;28;20296;-75
2023/08/06 00:52:00;;;;;;;16.20;10.57;;;13.20;99.90;;;;;;5001061;28;20292;-76
2023/08/06 00:54:27;;;;;;;15.97;9.93;;;13.30;99.90;;;;;;5000724;28;20292;-76
2023/08/06 00:56:53;;;;;;;18.70;10.80;;;13.30;99.90;;;;;;4987818;28;20057;-76
2023/08/06 00:59:19;;;;;;;18.23;11.07;;;13.20;99.90;;;;;;4984375;28;20431;-76
2023/08/06 01:01:45;;;;;;;17.63;10.87;;;13.30;99.90;;;;;;5005477;28;20056;-77
2023/08/06 01:04:12;;;;;;;16.47;10.63;;;13.30;99.90;;;;;;5004825;28;20312;-76
2023/08/06 01:06:48;;;;;;;18.40;10.97;;;13.30;99.90;;;;;;4987440;28;20323;-76
2023/08/06 01:09:20;;;;;;;16.70;10.63;;;13.30;99.90;;;;;;5002356;28;20326;-76
2023/08/06 01:12:21;;;;;;;19.90;11.53;;;13.30;99.90;;;;;;5001929;28;20285;-76
2023/08/06 01:14:59;;;;;;;18.80;11.67;;;13.30;99.90;;;;;;5015360;28;20287;-76
2023/08/06 01:17:26;;;;;;;16.93;11.23;;;13.30;99.90;;;;;;4997544;28;20283;-76
2023/08/06 01:19:52;;;;;;;23.27;12.53;;;13.30;99.90;;;;;;5001032;28;20281;-77
2023/08/06 01:22:18;;;;;;;16.83;11.93;;;13.30;99.90;;;;;;5039833;28;20311;-76
2023/08/06 01:24:48;;;;;;;22.50;12.03;;;13.30;99.90;;;;;;5021062;28;20315;-76
2023/08/06 01:27:46;;;;;;;22.17;12.83;;;13.30;99.90;;;;;;5031894;28;20565;-76
2023/08/06 01:30:27;;;;;;;23.33;13.80;;;13.30;99.90;;;;;;5026381;28;20288;-76
2023/08/06 01:32:58;;;;;;;26.03;14.63;;;13.30;99.90;;;;;;5049780;28;20291;-77
2023/08/06 01:35:26;;;;;;;26.50;15.00;;;13.30;99.90;;;;;;5020232;28;20287;-76
2023/08/06 01:37:52;;;;;;;20.97;13.47;;;13.30;99.90;;;;;;5019179;28;20271;-76
2023/08/06 01:40:18;;;;;;;25.23;14.53;;;13.40;99.90;;;;;;5019531;28;20280;-76
2023/08/06 01:42:43;;;;;;;25.77;15.13;;;13.40;99.90;;;;;;5041870;28;22035;-76
2023/08/06 01:45:10;;;;;;;27.30;15.27;;;13.40;99.90;;;;;;5037887;28;20099;-77
2023/08/06 01:47:36;;;;;;;24.40;14.27;;;13.40;99.90;;;;;;5039078;28;20106;-76
2023/08/06 01:50:02;;;;;;;29.23;15.43;;;13.40;99.90;;;;;;5045895;28;20288;-77
2023/08/06 01:52:28;;;;;;;30.40;16.47;;;13.40;99.90;;;;;;5024465;28;20311;-77
2023/08/06 01:54:54;;;;;;;36.07;17.20;;;13.40;99.90;;;;;;5028166;28;20868;-76
2023/08/06 01:57:20;;;;;;;29.77;15.53;;;13.30;99.90;;;;;;5039044;28;20037;-77
2023/08/06 01:59:45;;;;;;;28.97;16.87;;;13.30;99.90;;;;;;5045777;28;20643;-76
2023/08/06 02:02:11;;;;;;;30.17;16.93;;;13.30;99.90;;;;;;5044052;28;20045;-76
2023/08/06 02:04:37;;;;;;;37.77;17.57;;;13.30;99.90;;;;;;5042177;28;20524;-77
2023/08/06 02:07:03;;;;;;;32.87;17.43;;;13.40;99.90;;;;;;5041320;28;20311;-77
2023/08/06 02:09:29;;;;;;;30.63;18.00;;;13.40;99.90;;;;;;5043742;28;20413;-76
2023/08/06 02:11:54;;;;;;;35.23;18.17;;;13.40;99.90;;;;;;5029888;28;20509;-76
2023/08/06 02:14:20;;;;;;;39.73;19.87;;;13.40;99.90;;;;;;5043375;28;20049;-76
2023/08/06 02:16:46;;;;;;;37.60;18.53;;;13.40;99.90;;;;;;5043257;28;20448;-76
2023/08/06 02:19:11;;;;;;;33.73;19.17;;;13.40;99.90;;;;;;5037382;28;20057;-76
2023/08/06 02:21:37;;;;;;;29.20;17.57;;;13.40;99.90;;;;;;5044642;28;20114;-76
2023/08/06 02:24:03;;;;;;;31.50;17.50;;;13.40;99.90;;;;;;5043961;28;20091;-76
2023/08/06 02:26:29;;;;;;;33.87;18.70;;;13.30;99.90;;;;;;5045408;28;20436;-76
2023/08/06 02:28:54;;;;;;;30.57;18.13;;;13.30;99.90;;;;;;5039754;28;20291;-76
2023/08/06 02:31:20;;;;;;;32.20;18.03;;;13.30;99.90;;;;;;5039976;28;20453;-76
2023/08/06 02:33:46;;;;;;;31.67;17.43;;;13.30;99.90;;;;;;5028459;28;20037;-76
2023/08/06 02:36:12;;;;;;;29.07;16.60;;;13.30;99.90;;;;;;5025040;28;20084;-76
2023/08/06 02:38:37;;;;;;;29.87;16.93;;;13.30;99.90;;;;;;5030322;28;20041;-76
2023/08/06 02:41:04;;;;;;;28.60;16.83;;;13.30;99.90;;;;;;5030905;28;20412;-76
2023/08/06 02:43:30;;;;;;;29.07;16.63;;;13.30;99.90;;;;;;5027056;28;20393;-76
2023/08/06 02:46:00;;;;;;;28.27;16.57;;;13.30;99.90;;;;;;5039561;28;20893;-76
2023/08/06 02:48:26;;;;;;;27.70;17.33;;;13.30;99.90;;;;;;5019073;28;20294;-76
2023/08/06 02:50:52;;;;;;;27.43;16.97;;;13.30;99.90;;;;;;5041708;28;20322;-76
2023/08/06 02:53:18;;;;;;;31.93;17.47;;;13.30;99.90;;;;;;5039670;28;20795;-76
2023/08/06 02:55:47;;;;;;;27.77;15.90;;;13.40;99.90;;;;;;5041587;28;20291;-76
2023/08/06 02:58:17;;;;;;;28.63;17.40;;;13.40;99.90;;;;;;5049431;28;20048;-76
2023/08/06 03:00:46;;;;;;;28.07;16.47;;;13.40;99.90;;;;;;5045305;28;20319;-76
2023/08/06 03:03:12;;;;;;;25.77;16.23;;;13.40;99.90;;;;;;5048999;28;20312;-76
2023/08/06 03:05:37;;;;;;;26.97;15.73;;;13.40;99.90;;;;;;5041594;28;20349;-76
2023/08/06 03:08:03;;;;;;;25.53;15.73;;;13.40;99.90;;;;;;5033946;28;20044;-76
2023/08/06 03:10:29;;;;;;;24.67;14.83;;;13.40;99.90;;;;;;5030051;28;20303;-76
2023/08/06 03:12:54;;;;;;;25.87;15.23;;;13.40;99.90;;;;;;5046933;28;20472;-76
2023/08/06 03:15:20;;;;;;;26.70;15.90;;;13.40;99.90;;;;;;5035956;28;20482;-76
2023/08/06 03:17:46;;;;;;;26.43;14.93;;;13.40;99.90;;;;;;5046476;28;20035;-75
2023/08/06 03:20:11;;;;;;;25.00;15.77;;;13.40;99.90;;;;;;5029162;28;20417;-75
2023/08/06 03:22:37;;;;;;;26.60;15.17;;;13.40;99.90;;;;;;5013284;28;20084;-76
2023/08/06 03:25:03;;;;;;;23.60;14.27;;;13.40;99.90;;;;;;5010927;28;20072;-76
2023/08/06 03:27:29;;;;;;;21.33;13.17;;;13.40;99.90;;;;;;5014096;28;20038;-76
2023/08/06 03:29:55;;;;;;;23.10;14.20;;;13.40;99.90;;;;;;5004777;28;20293;-76
2023/08/06 03:32:21;;;;;;;21.00;13.83;;;13.40;99.90;;;;;;5000984;28;20669;-75
2023/08/06 03:34:46;;;;;;;23.83;14.87;;;13.30;99.90;;;;;;5002042;28;20033;-75
2023/08/06 03:37:12;;;;;;;22.67;13.57;;;13.30;99.90;;;;;;5000567;28;20421;-75
2023/08/06 03:39:38;;;;;;;22.67;14.57;;;13.30;99.90;;;;;;5009793;28;20043;-75
2023/08/06 03:42:04;;;;;;;23.10;13.57;;;13.20;99.90;;;;;;5008461;28;20069;-75
2023/08/06 03:44:30;;;;;;;19.70;13.70;;;13.20;99.90;;;;;;5012080;28;20068;-75
2023/08/06 03:46:56;;;;;;;19.10;13.77;;;13.20;99.90;;;;;;5015185;28;20038;-75
2023/08/06 03:49:22;;;;;;;21.20;13.57;;;13.20;99.90;;;;;;5012493;28;20779;-75
2023/08/06 03:51:47;;;;;;;19.27;13.47;;;13.10;99.90;;;;;;5005089;28;20212;-75
2023/08/06 03:54:13;;;;;;;20.40;14.20;;;13.10;99.90;;;;;;4996046;28;20049;-75
2023/08/06 03:56:39;;;;;;;22.03;13.17;;;13.10;99.90;;;;;;5005119;28;20124;-75
2023/08/06 03:59:04;;;;;;;21.27;13.67;;;13.10;99.90;;;;;;5003691;28;20104;-75
2023/08/06 04:01:30;;;;;;;26.90;14.57;;;13.10;99.90;;;;;;5010943;28;20048;-75
2023/08/06 04:03:56;;;;;;;23.23;14.73;;;13.10;99.90;;;;;;4992176;28;20510;-75
2023/08/06 04:06:21;;;;;;;23.37;13.60;;;13.10;99.90;;;;;;5011238;28;20037;-75
2023/08/06 04:08:47;;;;;;;25.10;13.33;;;13.10;99.90;;;;;;5007676;28;20029;-75
2023/08/06 04:11:13;;;;;;;29.80;14.40;;;13.10;99.90;;;;;;4991842;28;20084;-75
2023/08/06 04:13:41;;;;;;;22.83;13.80;;;13.10;99.90;;;;;;5003482;28;20136;-76
2023/08/06 04:16:07;;;;;;;24.53;14.23;;;13.10;99.90;;;;;;5010582;28;20056;-75
2023/08/06 04:18:33;;;;;;;23.93;13.87;;;13.10;99.90;;;;;;5009812;28;20284;-75
2023/08/06 04:20:58;;;;;;;25.97;14.17;;;13.10;99.90;;;;;;5026017;28;20072;-76
2023/08/06 04:23:24;;;;;;;25.30;14.17;;;13.10;99.90;;;;;;5047833;28;20060;-76
2023/08/06 04:25:50;;;;;;;25.57;14.67;;;13.10;99.90;;;;;;5043954;28;20037;-75
2023/08/06 04:28:16;;;;;;;24.53;13.77;;;13.10;99.90;;;;;;5037135;28;20140;-75
2023/08/06 04:30:42;;;;;;;22.47;14.17;;;13.10;99.90;;;;;;5037767;28;20041;-75
2023/08/06 04:33:07;;;;;;;23.60;14.27;;;13.10;99.90;;;;;;5035726;28;20045;-75
2023/08/06 04:35:33;;;;;;;25.93;14.10;;;13.10;99.90;;;;;;5040406;28;20130;-75
2023/08/06 04:37:59;;;;;;;22.23;14.17;;;13.20;99.90;;;;;;5047801;28;20040;-75
2023/08/06 04:40:24;;;;;;;21.43;14.43;;;13.20;99.90;;;;;;5043895;28;20044;-75
2023/08/06 04:42:50;;;;;;;31.17;14.57;;;13.20;99.90;;;;;;5025929;28;20118;-75
2023/08/06 04:45:16;;;;;;;23.20;14.60;;;13.20;99.90;;;;;;5031913;28;20072;-75
2023/08/06 04:47:42;;;;;;;23.30;15.27;;;13.30;99.90;;;;;;5044981;28;20041;-76
2023/08/06 04:50:08;;;;;;;27.43;15.03;;;13.30;99.90;;;;;;5018107;28;20520;-76
2023/08/06 04:52:33;;;;;;;26.03;15.03;;;13.30;99.90;;;;;;5044873;28;20429;-76
2023/08/06 04:54:59;;;;;;;22.30;14.53;;;13.30;99.90;;;;;;5044344;28;20048;-76
2023/08/06 04:57:25;;;;;;;27.83;14.87;;;13.30;99.90;;;;;;5044081;28;20116;-76
2023/08/06 04:59:51;;;;;;;24.73;14.67;;;13.30;99.90;;;;;;5047519;28;20072;-76
2023/08/06 05:02:16;;;;;;;25.87;14.90;;;13.40;99.90;;;;;;5041053;28;20281;-76
2023/08/06 05:04:42;;;;;;;24.37;14.80;;;13.40;99.90;;;;;;5041976;28;20142;-76
2023/08/06 05:07:08;;;;;;;24.57;14.93;;;13.40;99.90;;;;;;5041531;28;20406;-76
2023/08/06 05:09:33;;;;;;;26.07;15.73;;;13.40;99.90;;;;;;5046096;28;20032;-76
2023/08/06 05:12:04;;;;;;;25.23;15.20;;;13.50;99.90;;;;;;5043703;28;20047;-76
2023/08/06 05:14:30;;;;;;;25.27;14.33;;;13.50;99.90;;;;;;5043858;28;20044;-76
2023/08/06 05:16:55;;;;;;;21.77;14.87;;;13.50;99.90;;;;;;5035306;28;20652;-76
2023/08/06 05:19:21;;;;;;;23.07;15.30;;;13.60;99.90;;;;;;5040028;28;20045;-75
2023/08/06 05:21:47;;;;;;;27.73;15.47;;;13.70;99.90;;;;;;5047037;28;20053;-75
2023/08/06 05:24:12;;;;;;;24.80;15.53;;;13.70;99.90;;;;;;5026412;28;20565;-75
2023/08/06 05:26:38;;;;;;;22.00;15.17;;;13.80;99.90;;;;;;5046904;28;20088;-75
2023/08/06 05:29:04;;;;;;;22.57;14.83;;;13.90;99.90;;;;;;5045575;28;20040;-75
2023/08/06 05:31:29;;;;;;;24.27;16.33;;;13.90;99.90;;;;;;5044812;28;20390;-75
2023/08/06 05:33:55;;;;;;;22.40;14.87;;;13.90;99.90;;;;;;5042378;28;20040;-75
2023/08/06 05:36:21;;;;;;;23.57;14.80;;;13.90;99.90;;;;;;5045697;28;20040;-75
2023/08/06 05:38:47;;;;;;;23.60;14.13;;;14.00;99.90;;;;;;5026486;28;20192;-75
2023/08/06 05:41:13;;;;;;;22.37;14.90;;;14.00;99.90;;;;;;5028559;28;20044;-76
2023/08/06 05:43:38;;;;;;;24.20;14.63;;;14.10;99.90;;;;;;5041896;28;20307;-76
2023/08/06 05:46:04;;;;;;;20.37;14.27;;;14.10;99.90;;;;;;5039653;28;20068;-75
2023/08/06 05:48:30;;;;;;;20.17;14.00;;;14.20;99.90;;;;;;5024538;28;20044;-75
2023/08/06 05:50:55;;;;;;;22.00;13.63;;;14.20;99.90;;;;;;5041608;28;20037;-75
2023/08/06 05:53:21;;;;;;;17.23;13.70;;;14.20;99.90;;;;;;5018463;28;20036;-75
2023/08/06 05:55:47;;;;;;;19.27;13.57;;;14.20;99.90;;;;;;5038979;28;20630;-75
2023/08/06 05:58:13;;;;;;;19.33;13.57;;;14.20;99.90;;;;;;5026904;28;20037;-75
2023/08/06 06:00:39;;;;;;;19.97;13.67;;;14.30;99.90;;;;;;5043872;28;20294;-75
2023/08/06 06:03:04;;;;;;;20.97;14.47;;;14.30;99.90;;;;;;5038811;28;20034;-75
2023/08/06 06:05:30;;;;;;;18.87;13.47;;;14.30;99.90;;;;;;5029301;28;20397;-75
2023/08/06 06:07:56;;;;;;;20.87;13.53;;;14.40;99.90;;;;;;5042898;28;20048;-75
2023/08/06 06:10:21;;;;;;;20.73;13.57;;;14.40;99.90;;;;;;5044604;28;20091;-75
2023/08/06 06:12:47;;;;;;;18.87;13.70;;;14.40;99.90;;;;;;5036652;28;20040;-75
2023/08/06 06:15:13;;;;;;;18.53;13.13;;;14.50;99.90;;;;;;5031067;28;20428;-75
2023/08/06 06:17:38;;;;;;;17.83;13.30;;;14.60;99.90;;;;;;5018287;28;20056;-75
2023/08/06 06:20:05;;;;;;;17.97;12.43;;;14.60;99.90;;;;;;5036764;28;20052;-75
2023/08/06 06:22:31;;;;;;;20.33;13.37;;;14.60;99.90;;;;;;5041670;28;20060;-75
2023/08/06 06:24:56;;;;;;;17.13;12.47;;;14.80;99.90;;;;;;5042271;28;20299;-75
2023/08/06 06:27:22;;;;;;;15.03;12.00;;;14.80;99.90;;;;;;5034339;28;20068;-75
2023/08/06 06:29:48;;;;;;;14.37;11.23;;;14.90;99.90;;;;;;5048223;28;20045;-75
2023/08/06 06:32:13;;;;;;;16.37;12.57;;;15.00;99.90;;;;;;5048321;28;20033;-75
2023/08/06 06:34:39;;;;;;;15.40;12.37;;;15.20;99.90;;;;;;5044658;28;20037;-75
2023/08/06 06:37:05;;;;;;;14.23;11.80;;;15.40;99.90;;;;;;5035117;28;20041;-75
2023/08/06 06:39:31;;;;;;;14.97;11.37;;;15.60;99.90;;;;;;5032293;28;20092;-75
2023/08/06 06:41:56;;;;;;;13.37;10.37;;;15.70;99.90;;;;;;5034072;28;20453;-72
2023/08/06 06:44:22;;;;;;;13.33;10.50;;;15.80;99.90;;;;;;5045243;28;20707;-73
2023/08/06 06:46:48;;;;;;;12.83;10.13;;;15.90;99.90;;;;;;5043761;28;20040;-73
2023/08/06 06:49:13;;;;;;;12.33;9.57;;;15.90;99.90;;;;;;5020331;28;20107;-74
2023/08/06 06:51:39;;;;;;;12.93;9.73;;;15.90;99.90;;;;;;5046183;28;20036;-75
2023/08/06 06:54:05;;;;;;;13.57;10.07;;;15.80;99.90;;;;;;5042491;28;20055;-75
2023/08/06 06:56:30;;;;;;;11.53;10.00;;;15.70;99.90;;;;;;5038615;28;20064;-75
2023/08/06 06:58:56;;;;;;;11.30;9.20;;;15.60;99.90;;;;;;5040504;28;20442;-75
2023/08/06 07:01:22;;;;;;;13.00;10.00;;;15.60;99.90;;;;;;5032648;28;20084;-75
2023/08/06 07:03:47;;;;;;;12.03;9.80;;;15.70;99.90;;;;;;5036314;28;20048;-75
2023/08/06 07:06:15;;;;;;;12.73;10.63;;;15.70;99.90;;;;;;5023746;28;20111;-75
2023/08/06 07:08:41;;;;;;;11.70;9.90;;;15.90;99.90;;;;;;5025609;28;20460;-75
2023/08/06 07:11:07;;;;;;;12.43;10.13;;;16.00;99.90;;;;;;5042076;28;20291;-75
2023/08/06 07:13:34;;;;;;;9.97;8.93;;;16.10;99.90;;;;;;5036629;28;20110;-75
2023/08/06 07:16:00;;;;;;;12.00;9.47;;;16.20;99.90;;;;;;5044322;28;20325;-75
2023/08/06 07:18:26;;;;;;;10.40;9.27;;;16.20;99.90;;;;;;5031924;28;20791;-75
2023/08/06 07:20:53;;;;;;;13.37;9.27;;;16.20;99.90;;;;;;5033648;28;20049;-74
2023/08/06 07:23:21;;;;;;;12.00;10.17;;;16.30;99.90;;;;;;5036360;28;20053;-75
2023/08/06 07:25:47;;;;;;;10.70;8.80;;;16.30;99.90;;;;;;5036976;28;20755;-74
2023/08/06 07:28:14;;;;;;;14.10;10.57;;;16.40;99.90;;;;;;5043104;28;20288;-74
2023/08/06 07:30:40;;;;;;;10.83;9.73;;;16.60;99.90;;;;;;5040662;28;20280;-74
2023/08/06 07:33:06;;;;;;;12.37;9.67;;;16.80;99.90;;;;;;5023152;28;20288;-74
2023/08/06 07:35:32;;;;;;;10.33;8.70;;;17.10;99.90;;;;;;5041622;28;20102;-74
2023/08/06 07:37:58;;;;;;;12.00;9.27;;;17.20;99.90;;;;;;5049159;28;20075;-74
2023/08/06 07:40:24;;;;;;;12.17;10.87;;;17.20;99.90;;;;;;5046146;28;20076;-74
2023/08/06 07:42:50;;;;;;;14.50;11.13;;;17.20;99.90;;;;;;5038081;28;20045;-74
2023/08/06 07:45:15;;;;;;;13.73;10.17;;;17.20;99.90;;;;;;5042896;28;20520;-74
2023/08/06 07:47:42;;;;;;;11.83;9.73;;;17.30;99.90;;;;;;5045865;28;20148;-74
2023/08/06 07:50:08;;;;;;;11.53;9.33;;;17.20;99.90;;;;;;5044846;28;20432;-74
2023/08/06 07:52:34;;;;;;;8.87;7.53;;;17.20;99.90;;;;;;5028226;28;20037;-74
2023/08/06 07:55:01;;;;;;;9.57;7.43;;;17.40;99.90;;;;;;5040399;28;20072;-74
2023/08/06 07:57:27;;;;;;;9.30;7.93;;;17.40;99.90;;;;;;5042637;28;20049;-74
2023/08/06 07:59:53;;;;;;;11.63;8.13;;;17.50;99.90;;;;;;5025680;28;20098;-75
2023/08/06 08:02:19;;;;;;;9.30;8.20;;;17.60;99.90;;;;;;5046260;28;20071;-74
2023/08/06 08:04:47;;;;;;;9.67;8.07;;;17.70;99.90;;;;;;5045956;28;20137;-74
2023/08/06 08:07:13;;;;;;;10.43;6.90;;;17.90;99.90;;;;;;5047518;28;20443;-74
2023/08/06 08:09:39;;;;;;;9.17;7.60;;;18.00;99.90;;;;;;5045581;28;20037;-74
2023/08/06 08:12:05;;;;;;;7.37;6.50;;;18.10;99.90;;;;;;5036693;28;20044;-74
2023/08/06 08:14:35;;;;;;;9.70;7.13;;;18.20;99.90;;;;;;5021317;28;20041;-74
2023/08/06 08:17:02;;;;;;;7.87;6.67;;;18.00;99.90;;;;;;5039772;28;20049;-74
2023/08/06 08:19:28;;;;;;;6.63;5.93;;;18.10;99.90;;;;;;5044276;28;20042;-74
2023/08/06 08:21:54;;;;;;;8.80;6.40;;;18.10;99.90;;;;;;5044574;28;20460;-74
2023/08/06 08:24:23;;;;;;;8.43;6.73;;;18.20;99.90;;;;;;5018010;28;20152;-74
2023/08/06 08:26:53;;;;;;;8.53;7.00;;;18.10;99.90;;;;;;5022618;28;20037;-74
2023/08/06 08:29:22;;;;;;;7.03;6.33;;;18.30;99.90;;;;;;5040408;28;20124;-74
2023/08/06 08:31:50;;;;;;;8.40;6.30;;;18.50;99.90;;;;;;5036589;28;20127;-74
2023/08/06 08:34:16;;;;;;;6.63;5.80;;;18.70;99.90;;;;;;5040346;28;20446;-74
2023/08/06 08:36:42;;;;;;;8.03;6.30;;;18.70;99.90;;;;;;5036247;28;20148;-74
2023/08/06 08:39:08;;;;;;;7.37;5.97;;;18.80;99.90;;;;;;5044700;28;20466;-74
2023/08/06 08:41:36;;;;;;;5.53;3.87;;;18.90;99.90;;;;;;5045947;28;20116;-74
2023/08/06 08:44:04;;;;;;;5.20;4.70;;;18.90;99.90;;;;;;5039696;28;20103;-74
2023/08/06 08:46:32;;;;;;;6.20;4.60;;;18.80;99.90;;;;;;5040643;28;20048;-74
2023/08/06 08:48:59;;;;;;;6.73;5.03;;;18.90;99.90;;;;;;5037874;28;20041;-74
2023/08/06 08:51:27;;;;;;;5.33;4.53;;;18.90;99.90;;;;;;5029724;28;20037;-74
2023/08/06 08:53:57;;;;;;;5.67;4.93;;;18.90;99.90;;;;;;5040268;28;20041;-74
2023/08/06 08:56:24;;;;;;;5.07;4.27;;;18.80;99.90;;;;;;5037963;28;20123;-74
2023/08/06 08:58:51;;;;;;;4.70;3.00;;;18.70;99.90;;;;;;5029538;28;20155;-74
2023/08/06 09:01:17;;;;;;;5.23;3.37;;;18.70;99.90;;;;;;5023264;28;20116;-74
2023/08/06 09:03:44;;;;;;;3.93;3.30;;;18.70;99.90;;;;;;5033023;28;20204;-74
2023/08/06 09:06:12;;;;;;;5.20;3.43;;;18.80;99.90;;;;;;5037627;28;20040;-74
2023/08/06 09:08:47;;;;;;;4.33;3.27;;;18.70;99.90;;;;;;5020263;28;20044;-74
2023/08/06 09:11:12;;;;;;;4.15;3.53;;;18.70;99.90;;;;;;5057839;28;20568;-74
2023/08/06 09:13:39;;;;;;;5.30;3.53;;;18.80;99.90;;;;;;5030891;28;20439;-74
2023/08/06 09:16:05;;;;;;;4.63;3.10;;;18.90;99.90;;;;;;5029519;28;20145;-74
2023/08/06 09:18:31;;;;;;;4.73;3.40;;;18.90;99.90;;;;;;5017830;28;20067;-74
2023/08/06 09:20:57;;;;;;;4.77;3.10;;;19.00;99.90;;;;;;5036982;28;20060;-73
2023/08/06 09:23:31;;;;;;;4.90;2.97;;;19.10;99.90;;;;;;5042971;28;20061;-73
2023/08/06 09:25:58;;;;;;;3.13;2.27;;;19.20;99.90;;;;;;5032451;28;20124;-73
2023/08/06 09:28:24;;;;;;;3.13;2.23;;;19.10;99.90;;;;;;5037711;28;20103;-73
2023/08/06 09:30:50;;;;;;;2.83;1.70;;;19.20;99.90;;;;;;5038097;28;20116;-72
2023/08/06 09:33:22;;;;;;;3.73;1.90;;;19.20;99.90;;;;;;5038619;28;20106;-73
2023/08/06 09:35:47;;;;;;;4.07;2.37;;;19.30;99.90;;;;;;5029476;28;20041;-73
2023/08/06 09:38:13;;;;;;;4.37;2.20;;;19.30;99.90;;;;;;5027723;28;20045;-73
2023/08/06 09:40:40;;;;;;;4.00;2.00;;;19.40;99.90;;;;;;5032073;28;20095;-73
2023/08/06 09:43:06;;;;;;;2.23;1.60;;;19.40;99.90;;;;;;5028483;28;20548;-73
2023/08/06 09:45:34;;;;;;;3.60;2.20;;;19.50;99.90;;;;;;5035193;28;20163;-73
2023/08/06 09:48:04;;;;;;;2.30;1.60;;;19.70;99.90;;;;;;5040891;28;20120;-73
2023/08/06 09:50:32;;;;;;;3.23;1.70;;;19.90;99.90;;;;;;5041581;28;20505;-73
2023/08/06 09:53:02;;;;;;;3.33;1.60;;;20.00;99.90;;;;;;5036495;28;20485;-73
2023/08/06 09:55:28;;;;;;;4.90;2.30;;;20.10;99.90;;;;;;5037048;28;20042;-73
2023/08/06 09:57:54;;;;;;;2.83;2.13;;;20.10;99.90;;;;;;5042751;28;20383;-73
2023/08/06 10:00:22;;;;;;;2.17;1.67;;;20.20;99.90;;;;;;5041523;28;20095;-73
2023/08/06 10:02:48;;;;;;;3.80;1.80;;;20.20;99.90;;;;;;5041980;28;20436;-73
2023/08/06 10:05:15;;;;;;;3.13;1.63;;;20.10;99.90;;;;;;5033862;28;20045;-73
2023/08/06 10:07:44;;;;;;;4.07;1.60;;;20.10;99.90;;;;;;5014642;28;20658;-73
2023/08/06 10:10:10;;;;;;;5.70;2.10;;;20.10;98.80;;;;;;5034217;28;20106;-72
2023/08/06 10:12:44;;;;;;;2.97;1.90;;;20.00;98.20;;;;;;5040486;28;20025;-72
2023/08/06 10:15:14;;;;;;;2.70;1.50;;;19.90;97.10;;;;;;5039282;28;20032;-73
2023/08/06 10:17:42;;;;;;;3.17;1.53;;;19.90;98.40;;;;;;5035571;28;20040;-73
2023/08/06 10:20:08;;;;;;;3.63;1.67;;;20.00;99.90;;;;;;5037569;28;20041;-73
2023/08/06 10:22:34;;;;;;;9.57;1.90;;;20.20;99.50;;;;;;5020854;28;20075;-73
2023/08/06 10:25:04;;;;;;;1.70;1.30;;;20.30;97.50;;;;;;5038024;28;20068;-73
2023/08/06 10:27:32;;;;;;;3.23;1.77;;;20.40;97.10;;;;;;5040177;28;20037;-73
2023/08/06 10:30:21;;;;;;;2.00;1.50;;;20.60;98.10;;;;;;5036344;28;20512;-73
2023/08/06 10:32:49;;;;;;;1.60;1.33;;;20.80;96.40;;;;;;5036619;28;20040;-73
2023/08/06 10:35:30;;;;;;;3.07;1.77;;;21.00;92.90;;;;;;5039072;28;20493;-73
2023/08/06 10:38:04;;;;;;;2.30;1.40;;;21.40;95.20;;;;;;5023376;28;20040;-72
2023/08/06 10:40:30;;;;;;;3.73;1.60;;;21.60;93.70;;;;;;5028172;28;20076;-72
2023/08/06 10:43:00;;;;;;;3.33;1.70;;;21.70;92.40;;;;;;5036400;28;20041;-72
2023/08/06 10:45:28;;;;;;;4.13;2.03;;;21.60;91.20;;;;;;5014281;28;20144;-72
2023/08/06 10:47:56;;;;;;;5.37;1.70;;;21.30;90.80;;;;;;5027188;28;20056;-72
2023/08/06 10:50:22;;;;;;;4.87;1.80;;;21.00;90.30;;;;;;5043874;28;20442;-72
2023/08/06 10:52:48;;;;;;;3.23;2.13;;;20.80;90.70;;;;;;5012041;28;20041;-73
2023/08/06 10:55:14;;;;;;;2.10;1.90;;;20.60;90.80;;;;;;5043197;28;20049;-72
2023/08/06 10:57:40;;;;;;;3.93;2.40;;;20.40;88.80;;;;;;5042299;28;20045;-72
2023/08/06 11:00:08;;;;;;;3.30;2.00;;;20.20;89.40;;;;;;5045604;28;20045;-72
2023/08/06 11:02:37;;;;;;;3.53;1.90;;;20.20;91.70;;;;;;5038845;28;20045;-72
2023/08/06 11:05:10;;;;;;;4.43;2.50;;;20.20;91.90;;;;;;5040508;28;20046;-72
2023/08/06 11:07:37;;;;;;;4.47;2.50;;;20.10;92.50;;;;;;5041065;28;20084;-72
2023/08/06 11:10:10;;;;;;;3.87;2.40;;;20.00;89.50;;;;;;5033255;28;20047;-72
2023/08/06 11:12:36;;;;;;;4.07;1.97;;;19.90;89.80;;;;;;5034948;28;20040;-72
2023/08/06 11:15:03;;;;;;;3.70;2.13;;;19.90;91.60;;;;;;5029821;28;20131;-72
2023/08/06 11:17:31;;;;;;;5.63;2.73;;;19.90;91.40;;;;;;5038094;28;20052;-72
2023/08/06 11:20:05;;;;;;;3.27;2.07;;;20.00;91.10;;;;;;5040939;28;20493;-72
2023/08/06 11:22:31;;;;;;;3.40;2.20;;;20.10;89.70;;;;;;5030340;28;20049;-72
2023/08/06 11:24:57;;;;;;;5.23;2.47;;;20.20;91.50;;;;;;5038320;28;20049;-72
2023/08/06 11:27:23;;;;;;;3.27;1.90;;;20.30;91.40;;;;;;5038362;28;20045;-72
2023/08/06 11:29:49;;;;;;;3.80;2.40;;;20.50;91.90;;;;;;5034179;28;20036;-72
2023/08/06 11:32:14;;;;;;;3.30;2.00;;;20.60;86.60;;;;;;5043449;28;20397;-72
2023/08/06 11:34:41;;;;;;;2.67;2.30;;;20.70;89.20;;;;;;5043738;28;20044;-72
2023/08/06 11:37:07;;;;;;;5.93;2.37;;;20.70;87.90;;;;;;5038307;28;20049;-72
2023/08/06 11:39:37;;;;;;;2.90;2.00;;;20.70;85.20;;;;;;5041250;28;20374;-72
2023/08/06 11:42:04;;;;;;;2.77;2.40;;;20.60;87.00;;;;;;5043345;28;20048;-72
2023/08/06 11:44:34;;;;;;;4.90;2.43;;;20.60;85.40;;;;;;5048745;28;20775;-72
2023/08/06 11:47:02;;;;;;;3.10;2.20;;;20.60;86.70;;;;;;5059937;28;20115;-72
2023/08/06 11:49:44;;;;;;;4.27;2.80;;;20.70;85.70;;;;;;5041061;28;20046;-73
2023/08/06 11:52:19;;;;;;;3.80;2.27;;;20.80;87.20;;;;;;5039552;28;20048;-73
2023/08/06 11:54:46;;;;;;;3.15;2.03;;;20.90;86.40;;;;;;5041817;28;20045;-73
2023/08/06 11:57:11;;;;;;;3.97;2.17;;;21.00;86.90;;;;;;5034010;28;20506;-73
2023/08/06 11:59:39;;;;;;;4.53;2.43;;;21.10;86.90;;;;;;5046810;28;20102;-73
2023/08/06 12:02:08;;;;;;;4.00;2.70;;;21.20;85.90;;;;;;5041077;28;20129;-71
2023/08/06 12:05:04;;;;;;;4.60;2.83;;;21.20;83.60;;;;;;5032782;28;20505;-73
2023/08/06 12:07:36;;;;;;;3.70;2.50;;;21.20;77.80;;;;;;5021836;28;20037;-73
2023/08/06 12:10:02;;;;;;;5.13;2.77;;;21.20;79.60;;;;;;5041764;28;20045;-73
2023/08/06 12:12:28;;;;;;;3.67;2.53;;;21.40;80.20;;;;;;5039795;28;20040;-72
2023/08/06 12:14:55;;;;;;;3.07;2.37;;;21.70;79.10;;;;;;5042381;28;20033;-73
2023/08/06 12:17:20;;;;;;;5.47;2.63;;;21.70;78.40;;;;;;5043026;28;20111;-71
2023/08/06 12:19:47;;;;;;;5.10;2.50;;;21.90;77.70;;;;;;5046285;28;20405;-72
2023/08/06 12:22:13;;;;;;;5.00;2.47;;;22.00;80.00;;;;;;5040303;28;20065;-72
2023/08/06 12:24:43;;;;;;;3.93;3.00;;;22.20;80.60;;;;;;5027195;28;20040;-72
2023/08/06 12:27:09;;;;;;;3.93;2.20;;;22.10;76.60;;;;;;5041193;28;20029;-72
2023/08/06 12:29:36;;;;;;;4.73;2.30;;;21.90;77.40;;;;;;5034685;28;20159;-72
2023/08/06 12:32:03;;;;;;;3.17;2.47;;;21.70;78.00;;;;;;5037284;28;20120;-72
2023/08/06 12:34:29;;;;;;;3.90;2.57;;;21.50;74.10;;;;;;5022136;28;20041;-72